createdAt,value
2019-02-18T00:01:42.131Z,9.40
2019-02-18T00:04:11.946Z,10.00
2019-02-18T00:06:41.703Z,8.70
2019-02-18T00:09:12.367Z,9.43
2019-02-18T00:11:42.094Z,8.53
2019-02-18T00:14:11.842Z,8.47
2019-02-18T00:16:41.697Z,9.10
2019-02-18T00:19:11.446Z,8.03
2019-02-18T00:21:41.211Z,8.00
2019-02-18T00:24:11.423Z,8.60
2019-02-18T00:26:42.263Z,9.23
2019-02-18T00:29:12.044Z,8.63
2019-02-18T00:31:42.699Z,8.37
2019-02-18T00:34:13.538Z,9.43
2019-02-18T00:36:44.121Z,8.93
2019-02-18T00:39:13.886Z,8.73
2019-02-18T00:41:43.671Z,9.40
2019-02-18T00:44:13.418Z,8.87
2019-02-18T00:46:43.181Z,10.10
2019-02-18T00:49:13.333Z,8.87
2019-02-18T00:51:43.361Z,9.13
2019-02-18T00:54:13.181Z,8.50
2019-02-18T00:56:42.934Z,9.47
2019-02-18T00:59:12.738Z,8.70
2019-02-18T01:01:42.552Z,8.47
2019-02-18T01:04:12.396Z,8.70
2019-02-18T01:06:42.836Z,8.90
2019-02-18T01:09:12.577Z,8.47
2019-02-18T01:11:42.408Z,8.70
2019-02-18T01:14:12.239Z,8.30
2019-02-18T01:16:43.315Z,8.20
2019-02-18T01:19:13.078Z,8.87
2019-02-18T01:21:42.821Z,7.97
2019-02-18T01:24:12.663Z,8.30
2019-02-18T01:26:42.409Z,9.73
2019-02-18T01:29:12.164Z,8.70
2019-02-18T01:31:43.423Z,9.00
2019-02-18T01:34:13.447Z,8.60
2019-02-18T01:36:43.474Z,8.17
2019-02-18T01:39:13.234Z,8.80
2019-02-18T01:41:43.058Z,9.13
2019-02-18T01:44:12.822Z,8.67
2019-02-18T01:46:42.663Z,8.33
2019-02-18T01:49:13.546Z,8.13
2019-02-18T01:51:43.354Z,8.20
2019-02-18T01:54:13.178Z,8.77
2019-02-18T01:56:43.009Z,8.67
2019-02-18T01:59:12.766Z,8.97
2019-02-18T02:01:42.580Z,8.57
2019-02-18T02:04:12.331Z,8.90
2019-02-18T02:06:42.410Z,9.50
2019-02-18T02:09:14.887Z,7.90
2019-02-18T02:11:44.731Z,8.70
2019-02-18T02:14:14.736Z,8.13
2019-02-18T02:16:45.429Z,8.27
2019-02-18T02:19:15.198Z,9.43
2019-02-18T02:21:44.950Z,8.27
2019-02-18T02:24:14.714Z,8.00
2019-02-18T02:26:44.614Z,9.10
2019-02-18T02:29:14.380Z,8.80
2019-02-18T02:31:45.059Z,8.20
2019-02-18T02:34:16.722Z,8.47
2019-02-18T02:36:46.568Z,8.10
2019-02-18T02:39:16.367Z,8.30
2019-02-18T02:41:46.171Z,8.03
2019-02-18T02:44:16.006Z,8.30
2019-02-18T02:46:45.793Z,8.40
2019-02-18T02:49:15.549Z,8.47
2019-02-18T02:51:46.219Z,8.60
2019-02-18T02:54:16.370Z,8.07
2019-02-18T02:56:46.144Z,8.27
2019-02-18T02:59:15.927Z,7.73
2019-02-18T03:01:45.836Z,7.80
2019-02-18T03:04:16.416Z,8.37
2019-02-18T03:06:47.255Z,8.40
2019-02-18T03:09:17.294Z,8.33
2019-02-18T03:11:47.063Z,8.33
2019-02-18T03:14:16.846Z,8.03
2019-02-18T03:16:46.610Z,7.77
2019-02-18T03:19:16.430Z,7.80
2019-02-18T03:21:46.203Z,8.73
2019-02-18T03:24:17.359Z,7.60
2019-02-18T03:26:47.127Z,8.37
2019-02-18T03:29:53.273Z,6.87
2019-02-18T03:32:24.459Z,7.40
2019-02-18T03:34:54.217Z,7.73
2019-02-18T03:37:23.984Z,8.30
2019-02-18T03:39:53.772Z,7.53
2019-02-18T03:42:23.530Z,8.00
2019-02-18T03:44:53.282Z,8.07
2019-02-18T03:47:23.099Z,7.87
2019-02-18T03:49:52.882Z,7.10
2019-02-18T03:52:22.650Z,9.00
2019-02-18T03:54:52.506Z,8.60
2019-02-18T03:57:22.522Z,8.07
2019-02-18T03:59:53.816Z,7.53
2019-02-18T04:02:23.578Z,8.83
2019-02-18T04:04:53.415Z,8.47
2019-02-18T04:07:23.194Z,7.97
2019-02-18T04:09:52.957Z,8.00
2019-02-18T04:12:22.794Z,7.47
2019-02-18T04:14:52.637Z,7.93
2019-02-18T04:17:22.399Z,8.63
2019-02-18T04:19:52.400Z,9.07
2019-02-18T04:22:22.303Z,8.20
2019-02-18T04:24:52.123Z,7.57
2019-02-18T04:27:21.879Z,7.70
2019-02-18T04:29:51.642Z,7.63
2019-02-18T04:32:21.738Z,8.00
2019-02-18T04:34:52.234Z,8.47
2019-02-18T04:37:21.999Z,8.53
2019-02-18T04:39:51.774Z,7.80
2019-02-18T04:42:21.662Z,8.13
2019-02-18T04:44:51.453Z,8.07
2019-02-18T04:47:22.343Z,7.80
2019-02-18T04:49:53.297Z,7.80
2019-02-18T04:52:23.193Z,8.50
2019-02-18T04:54:52.938Z,7.93
2019-02-18T04:57:22.894Z,7.73
2019-02-18T04:59:53.186Z,8.37
2019-02-18T05:02:23.007Z,7.73
2019-02-18T05:04:52.777Z,7.87
2019-02-18T05:07:22.890Z,8.03
2019-02-18T05:09:53.027Z,7.57
2019-02-18T05:12:22.815Z,7.57
2019-02-18T05:14:52.743Z,8.07
2019-02-18T05:17:22.577Z,7.57
2019-02-18T05:19:52.481Z,7.17
2019-02-18T05:22:22.285Z,7.13
2019-02-18T05:24:52.124Z,7.93
2019-02-18T05:27:32.832Z,7.87
2019-02-18T05:29:54.016Z,7.43
2019-02-18T05:32:25.928Z,8.03
2019-02-18T05:34:56.775Z,7.53
2019-02-18T05:37:26.935Z,9.00
2019-02-18T05:39:57.071Z,7.60
2019-02-18T05:42:26.930Z,7.73
2019-02-18T05:44:58.694Z,7.70
2019-02-18T05:47:28.703Z,7.17
2019-02-18T05:49:58.732Z,9.43
2019-02-18T05:52:28.581Z,8.17
2019-02-18T05:54:58.358Z,7.70
2019-02-18T05:57:28.265Z,7.97
2019-02-18T05:59:58.022Z,7.50
2019-02-18T06:02:28.127Z,7.87
2019-02-18T06:04:57.892Z,7.23
2019-02-18T06:07:27.685Z,7.40
2019-02-18T06:09:57.480Z,7.33
2019-02-18T06:12:27.327Z,7.30
2019-02-18T06:14:57.267Z,7.40
2019-02-18T06:17:27.050Z,7.70
2019-02-18T06:19:56.819Z,6.77
2019-02-18T06:22:26.635Z,8.20
2019-02-18T06:24:56.804Z,7.50
2019-02-18T06:27:26.582Z,7.73
2019-02-18T06:29:56.431Z,9.17
2019-02-18T06:32:27.158Z,7.57
2019-02-18T06:34:57.681Z,7.43
2019-02-18T06:37:27.446Z,7.50
2019-02-18T06:39:58.341Z,7.63
2019-02-18T06:42:28.099Z,8.60
2019-02-18T06:45:03.608Z,8.50
2019-02-18T06:47:33.478Z,7.43
2019-02-18T06:50:03.649Z,7.37
2019-02-18T06:52:33.464Z,7.33
2019-02-18T06:55:03.327Z,7.23
2019-02-18T06:58:00.099Z,7.63
2019-02-18T07:00:54.873Z,7.50
2019-02-18T07:03:29.254Z,8.27
2019-02-18T07:06:09.772Z,7.57
2019-02-18T07:08:53.500Z,10.03
2019-02-18T07:11:44.042Z,8.63
2019-02-18T07:14:13.987Z,7.33
2019-02-18T07:16:43.762Z,7.57
2019-02-18T07:19:13.858Z,7.13
2019-02-18T07:21:43.869Z,7.00
2019-02-18T07:24:15.374Z,7.10
2019-02-18T07:26:45.428Z,7.43
2019-02-18T07:29:15.415Z,26.47
2019-02-18T07:31:47.845Z,15.13
2019-02-18T07:34:17.871Z,14.20
2019-02-18T07:36:48.378Z,13.10
2019-02-18T07:39:18.162Z,11.93
2019-02-18T07:41:47.943Z,13.10
2019-02-18T07:44:17.845Z,13.03
2019-02-18T07:46:47.806Z,10.27
2019-02-18T07:49:17.618Z,13.30
2019-02-18T07:51:47.418Z,12.47
2019-02-18T07:54:17.290Z,10.17
2019-02-18T07:56:47.158Z,12.63
2019-02-18T07:59:17.066Z,10.27
2019-02-18T08:01:46.879Z,11.23
2019-02-18T08:04:16.654Z,13.97
2019-02-18T08:06:46.494Z,12.57
2019-02-18T08:09:16.279Z,12.63
2019-02-18T08:11:46.055Z,20.40
2019-02-18T08:14:17.233Z,16.70
2019-02-18T08:16:47.486Z,13.57
2019-02-18T08:19:17.258Z,12.70
2019-02-18T08:21:47.791Z,13.20
2019-02-18T08:24:18.498Z,13.57
2019-02-18T08:26:48.274Z,14.53
2019-02-18T08:29:18.070Z,15.77
2019-02-18T08:31:49.861Z,15.33
2019-02-18T08:34:19.698Z,18.63
2019-02-18T08:36:50.703Z,14.73
2019-02-18T08:39:20.478Z,12.97
2019-02-18T08:41:50.263Z,12.93
2019-02-18T08:44:20.091Z,11.37
2019-02-18T08:46:49.883Z,17.50
2019-02-18T08:49:19.688Z,15.10
2019-02-18T08:51:50.453Z,14.23
2019-02-18T08:54:20.264Z,16.57
2019-02-18T08:56:50.121Z,21.00
2019-02-18T08:59:19.901Z,12.80
2019-02-18T09:01:49.724Z,16.73
2019-02-18T09:04:19.581Z,13.50
2019-02-18T09:06:49.389Z,15.13
2019-02-18T09:09:19.238Z,17.43
2019-02-18T09:11:49.575Z,14.07
2019-02-18T09:14:19.808Z,10.87
2019-02-18T09:16:49.608Z,16.20
2019-02-18T09:19:20.487Z,12.07
2019-02-18T09:21:55.425Z,13.60
2019-02-18T09:24:30.162Z,12.70
2019-02-18T09:26:59.950Z,10.73
2019-02-18T09:29:29.970Z,14.27
2019-02-18T09:32:01.956Z,17.30
2019-02-18T09:34:32.668Z,11.17
2019-02-18T09:37:03.631Z,11.37
2019-02-18T09:39:33.464Z,12.10
2019-02-18T09:42:03.594Z,15.40
2019-02-18T09:44:33.380Z,14.97
2019-02-18T09:47:03.234Z,11.07
2019-02-18T09:49:33.195Z,50.90
2019-02-18T09:52:04.228Z,24.33
2019-02-18T09:54:34.154Z,17.27
2019-02-18T09:57:04.023Z,21.13
2019-02-18T09:59:33.835Z,16.02
2019-02-18T10:02:03.619Z,17.48
2019-02-18T10:04:33.399Z,13.93
2019-02-18T10:07:03.485Z,15.10
2019-02-18T10:09:34.640Z,15.67
2019-02-18T10:12:04.709Z,10.07
2019-02-18T10:14:34.876Z,15.60
2019-02-18T10:17:05.163Z,13.17
2019-02-18T10:19:35.317Z,13.67
2019-02-18T10:22:05.391Z,15.37
2019-02-18T10:24:35.165Z,14.87
2019-02-18T10:27:05.156Z,14.80
2019-02-18T10:29:35.009Z,11.00
2019-02-18T10:32:06.522Z,8.50
2019-02-18T10:34:36.302Z,12.30
2019-02-18T10:37:08.410Z,7.90
2019-02-18T10:39:38.683Z,8.73
2019-02-18T10:42:09.530Z,9.27
2019-02-18T10:44:39.487Z,12.63
2019-02-18T10:47:09.367Z,13.23
2019-02-18T10:49:39.154Z,12.80
2019-02-18T10:52:09.456Z,15.20
2019-02-18T10:54:39.275Z,11.37
2019-02-18T10:57:09.984Z,9.27
2019-02-18T10:59:41.061Z,9.23
2019-02-18T11:02:12.170Z,12.57
2019-02-18T11:04:41.960Z,11.97
2019-02-18T11:07:11.830Z,11.57
2019-02-18T11:09:41.668Z,12.30
2019-02-18T11:12:11.519Z,13.70
2019-02-18T11:14:41.295Z,9.17
2019-02-18T11:17:11.166Z,8.53
2019-02-18T11:19:40.927Z,10.40
2019-02-18T11:22:10.714Z,8.07
2019-02-18T11:24:41.171Z,11.40
2019-02-18T11:27:11.464Z,13.53
2019-02-18T11:29:41.244Z,10.87
2019-02-18T11:32:12.359Z,8.30
2019-02-18T11:34:43.043Z,9.63
2019-02-18T11:37:13.884Z,13.30
2019-02-18T11:39:44.874Z,10.57
2019-02-18T11:42:17.383Z,9.60
2019-02-18T11:44:47.236Z,9.40
2019-02-18T11:47:17.115Z,11.00
2019-02-18T11:49:48.764Z,12.70
2019-02-18T11:52:19.819Z,10.50
2019-02-18T11:54:49.639Z,10.37
2019-02-18T11:57:19.481Z,7.70
2019-02-18T11:59:49.263Z,10.00
2019-02-18T12:02:19.510Z,10.37
2019-02-18T12:04:49.607Z,11.57
2019-02-18T12:07:19.455Z,8.33
2019-02-18T12:12:40.162Z,12.53
2019-02-18T12:15:11.046Z,9.67
2019-02-18T12:17:40.893Z,7.47
2019-02-18T12:20:12.258Z,8.97
2019-02-18T12:22:42.203Z,9.50
2019-02-18T12:25:12.925Z,10.13
2019-02-18T12:27:43.185Z,9.00
2019-02-18T12:30:13.467Z,8.07
2019-02-18T12:32:43.754Z,7.37
2019-02-18T12:35:16.015Z,6.87
2019-02-18T12:37:54.984Z,8.30
2019-02-18T12:40:18.767Z,7.67
2019-02-18T12:42:48.548Z,8.53
2019-02-18T12:45:18.359Z,7.53
2019-02-18T12:47:48.252Z,8.73
2019-02-18T12:50:18.152Z,20.03
2019-02-18T12:52:48.075Z,12.20
2019-02-18T12:55:20.648Z,12.83
2019-02-18T12:57:50.534Z,13.20
2019-02-18T13:00:21.496Z,14.63
2019-02-18T13:02:52.350Z,12.80
2019-02-18T13:05:23.393Z,10.60
2019-02-18T13:07:54.409Z,13.10
2019-02-18T13:10:34.708Z,15.93
2019-02-18T13:12:58.334Z,10.90
2019-02-18T13:15:28.139Z,11.67
2019-02-18T13:17:58.085Z,10.10
2019-02-18T13:20:27.865Z,11.53
2019-02-18T13:22:58.812Z,9.90
2019-02-18T13:25:31.478Z,10.57
2019-02-18T13:28:08.284Z,10.73
2019-02-18T13:30:32.958Z,10.03
2019-02-18T13:33:05.030Z,8.73
2019-02-18T13:35:35.245Z,9.23
2019-02-18T13:38:07.110Z,11.30
2019-02-18T13:40:38.679Z,9.80
2019-02-18T13:43:08.630Z,9.70
2019-02-18T13:45:39.262Z,9.37
2019-02-18T13:48:09.316Z,8.40
2019-02-18T13:50:39.505Z,6.80
2019-02-18T13:53:09.798Z,6.60
2019-02-18T13:55:39.940Z,7.97
2019-02-18T13:58:10.613Z,10.70
2019-02-18T14:00:42.123Z,8.63
2019-02-18T14:03:12.150Z,9.33
2019-02-18T14:05:42.423Z,6.80
2019-02-18T14:08:12.399Z,13.10
2019-02-18T14:10:42.553Z,9.03
2019-02-18T14:13:12.340Z,11.13
2019-02-18T14:15:44.313Z,9.30
2019-02-18T14:18:14.365Z,15.27
2019-02-18T14:20:44.875Z,9.73
2019-02-18T14:23:15.953Z,10.03
2019-02-18T14:25:49.202Z,8.80
2019-02-18T14:28:19.806Z,9.63
2019-02-18T14:30:49.829Z,9.43
2019-02-18T14:33:21.015Z,10.38
2019-02-18T14:35:50.890Z,9.27
2019-02-18T14:38:23.505Z,7.83
2019-02-18T14:40:53.792Z,8.77
2019-02-18T14:43:23.866Z,8.73
2019-02-18T14:45:54.225Z,5.83
2019-02-18T14:48:24.212Z,7.17
2019-02-18T14:50:56.632Z,8.10
2019-02-18T14:53:25.773Z,13.30
2019-02-18T14:55:56.565Z,10.13
2019-02-18T14:58:26.414Z,5.70
2019-02-18T15:00:56.484Z,7.83
2019-02-18T15:03:26.876Z,7.07
2019-02-18T15:05:56.699Z,8.50
2019-02-18T15:08:26.734Z,7.07
2019-02-18T15:10:56.624Z,8.27
2019-02-18T15:13:27.019Z,7.97
2019-02-18T15:15:57.767Z,8.13
2019-02-18T15:18:27.534Z,6.43
2019-02-18T15:20:57.396Z,7.40
2019-02-18T15:23:27.363Z,12.53
2019-02-18T15:25:57.409Z,10.47
2019-02-18T15:28:28.069Z,9.17
2019-02-18T15:30:57.985Z,7.70
2019-02-18T15:33:28.881Z,9.20
2019-02-18T15:35:58.967Z,9.30
2019-02-18T15:38:29.422Z,5.90
2019-02-18T15:41:01.422Z,8.30
2019-02-18T15:43:33.033Z,10.17
2019-02-18T15:46:02.950Z,6.77
2019-02-18T15:48:36.363Z,11.87
2019-02-18T15:51:08.051Z,7.20
2019-02-18T15:53:40.038Z,6.07
2019-02-18T15:56:11.610Z,7.80
2019-02-18T15:58:42.175Z,12.37
2019-02-18T16:01:12.050Z,8.77
2019-02-18T16:03:42.542Z,8.60
2019-02-18T16:06:12.807Z,7.47
2019-02-18T16:08:43.878Z,13.32
2019-02-18T16:11:16.974Z,9.50
2019-02-18T16:13:46.979Z,12.50
2019-02-18T16:16:16.753Z,13.73
2019-02-18T16:18:46.550Z,9.47
2019-02-18T16:21:16.620Z,14.23
2019-02-18T16:23:46.443Z,12.13
2019-02-18T16:26:16.270Z,8.17
2019-02-18T16:28:46.567Z,10.60
2019-02-18T16:31:16.642Z,6.10
2019-02-18T16:33:47.744Z,10.00
2019-02-18T16:36:17.582Z,9.27
2019-02-18T16:38:47.358Z,7.63
2019-02-18T16:41:18.017Z,12.57
2019-02-18T16:43:48.938Z,7.33
2019-02-18T16:46:20.556Z,8.53
2019-02-18T16:48:50.720Z,8.27
2019-02-18T16:51:20.520Z,6.70
2019-02-18T16:53:50.335Z,11.83
2019-02-18T16:56:21.391Z,10.47
2019-02-18T16:58:52.200Z,7.10
2019-02-18T17:01:22.635Z,6.63
2019-02-18T17:03:52.456Z,5.47
2019-02-18T17:06:22.346Z,6.40
2019-02-18T17:08:52.262Z,4.00
2019-02-18T17:11:22.188Z,6.23
2019-02-18T17:13:52.058Z,5.27
2019-02-18T17:16:21.907Z,6.10
2019-02-18T17:18:51.770Z,7.67
2019-02-18T17:21:22.463Z,4.33
2019-02-18T17:23:52.290Z,5.57
2019-02-18T17:26:22.070Z,5.53
2019-02-18T17:28:51.888Z,5.07
2019-02-18T17:31:21.835Z,5.57
2019-02-18T17:33:53.463Z,4.07
2019-02-18T17:36:23.551Z,4.20
2019-02-18T17:38:53.378Z,4.63
2019-02-18T17:41:23.321Z,5.43
2019-02-18T17:43:55.386Z,4.70
2019-02-18T17:46:25.225Z,6.30
2019-02-18T17:48:55.011Z,4.70
2019-02-18T17:51:24.825Z,4.83
2019-02-18T17:53:54.602Z,5.73
2019-02-18T17:56:24.403Z,4.27
2019-02-18T17:58:54.201Z,4.50
2019-02-18T18:01:24.038Z,4.93
2019-02-18T18:03:53.825Z,5.07
2019-02-18T18:06:24.193Z,5.47
2019-02-18T18:08:53.974Z,3.80
2019-02-18T18:11:23.754Z,5.57
2019-02-18T18:13:53.674Z,3.37
2019-02-18T18:16:23.771Z,5.87
2019-02-18T18:18:53.544Z,5.13
2019-02-18T18:21:23.353Z,5.50
2019-02-18T18:23:53.118Z,5.43
2019-02-18T18:26:23.400Z,6.03
2019-02-18T18:28:53.852Z,6.60
2019-02-18T18:31:23.753Z,5.53
2019-02-18T18:33:55.304Z,3.83
2019-02-18T18:36:25.159Z,4.53
2019-02-18T18:38:54.941Z,4.60
2019-02-18T18:41:25.464Z,4.77
2019-02-18T18:43:57.194Z,5.03
2019-02-18T18:46:27.006Z,4.83
2019-02-18T18:48:56.774Z,5.07
2019-02-18T18:51:26.563Z,4.67
2019-02-18T18:53:56.983Z,5.33
2019-02-18T18:56:26.771Z,4.20
2019-02-18T18:58:56.872Z,5.57
2019-02-18T19:01:26.696Z,4.70
2019-02-18T19:03:56.514Z,4.77
2019-02-18T19:06:26.355Z,4.30
2019-02-18T19:08:56.126Z,4.20
2019-02-18T19:11:25.973Z,3.77
2019-02-18T19:13:55.734Z,5.73
2019-02-18T19:16:25.578Z,3.90
2019-02-18T19:18:55.363Z,6.87
2019-02-18T19:21:25.384Z,4.93
2019-02-18T19:23:55.148Z,3.97
2019-02-18T19:26:25.354Z,5.23
2019-02-18T19:28:55.204Z,3.73
2019-02-18T19:31:26.453Z,4.53
2019-02-18T19:33:57.185Z,4.90
2019-02-18T19:36:28.086Z,4.97
2019-02-18T19:38:57.859Z,4.17
2019-02-18T19:41:27.618Z,4.80
2019-02-18T19:43:58.855Z,5.90
2019-02-18T19:46:29.232Z,4.63
2019-02-18T19:48:58.990Z,4.43
2019-02-18T19:51:28.866Z,5.07
2019-02-18T19:53:58.838Z,4.33
2019-02-18T19:56:28.614Z,3.77
2019-02-18T19:58:58.387Z,3.90
2019-02-18T20:01:28.521Z,4.83
2019-02-18T20:03:58.291Z,3.83
2019-02-18T20:06:28.820Z,4.40
2019-02-18T20:08:58.582Z,4.10
2019-02-18T20:11:28.355Z,4.77
2019-02-18T20:13:59.061Z,5.37
2019-02-18T20:16:29.055Z,5.67
2019-02-18T20:18:58.830Z,4.17
2019-02-18T20:21:28.599Z,4.83
2019-02-18T20:23:58.538Z,3.30
2019-02-18T20:26:29.211Z,3.50
2019-02-18T20:29:00.439Z,4.90
2019-02-18T20:31:30.590Z,4.30
2019-02-18T20:34:03.090Z,4.63
2019-02-18T20:36:32.858Z,5.23
2019-02-18T20:39:02.722Z,4.70
2019-02-18T20:41:32.887Z,3.80
2019-02-18T20:44:07.511Z,4.37
2019-02-18T20:46:35.734Z,6.07
2019-02-18T20:49:05.510Z,4.57
2019-02-18T20:51:35.314Z,5.17
2019-02-18T20:54:05.154Z,3.80
2019-02-18T20:56:34.918Z,4.97
2019-02-18T20:59:04.710Z,3.70
2019-02-18T21:01:35.221Z,4.03
2019-02-18T21:04:05.103Z,5.00
2019-02-18T21:06:34.870Z,3.83
2019-02-18T21:09:06.250Z,4.97
2019-02-18T21:11:36.027Z,4.03
2019-02-18T21:14:06.206Z,3.80
2019-02-18T21:16:36.347Z,3.60
2019-02-18T21:19:06.116Z,4.00
2019-02-18T21:21:35.878Z,3.90
2019-02-18T21:24:06.714Z,4.87
2019-02-18T21:26:36.815Z,3.93
2019-02-18T21:29:06.779Z,5.00
2019-02-18T21:31:36.630Z,3.23
2019-02-18T21:34:09.037Z,3.37
2019-02-18T21:36:39.186Z,5.57
2019-02-18T21:39:12.808Z,3.93
2019-02-18T21:41:42.599Z,4.10
2019-02-18T21:44:12.415Z,3.30
2019-02-18T21:46:43.086Z,5.17
2019-02-18T21:49:13.234Z,3.67
2019-02-18T21:51:43.098Z,4.10
2019-02-18T21:54:12.971Z,3.63
2019-02-18T21:56:42.742Z,4.03
2019-02-18T21:59:12.515Z,3.70
2019-02-18T22:01:42.807Z,3.10
2019-02-18T22:04:12.805Z,3.53
2019-02-18T22:06:42.579Z,4.73
2019-02-18T22:09:12.399Z,3.87
2019-02-18T22:11:42.163Z,3.40
2019-02-18T22:14:11.930Z,4.23
2019-02-18T22:16:41.713Z,3.67
2019-02-18T22:19:13.339Z,3.73
2019-02-18T22:21:43.349Z,3.23
2019-02-18T22:24:13.119Z,3.57
2019-02-18T22:26:42.870Z,3.53
2019-02-18T22:29:12.691Z,4.43
2019-02-18T22:31:42.918Z,4.37
2019-02-18T22:34:13.573Z,4.47
2019-02-18T22:36:43.379Z,4.53
2019-02-18T22:39:13.160Z,3.43
2019-02-18T22:41:42.934Z,4.87
2019-02-18T22:44:12.745Z,4.10
2019-02-18T22:46:46.184Z,3.70
2019-02-18T22:49:15.946Z,3.70
2019-02-18T22:51:45.783Z,3.40
2019-02-18T22:54:15.670Z,3.73
2019-02-18T22:56:45.463Z,4.70
2019-02-18T22:59:15.231Z,3.87
2019-02-18T23:01:45.553Z,3.40
2019-02-18T23:04:15.346Z,3.47
2019-02-18T23:06:45.134Z,3.70
2019-02-18T23:09:15.575Z,3.53
2019-02-18T23:11:45.350Z,5.00
2019-02-18T23:14:15.121Z,3.50
2019-02-18T23:16:46.145Z,3.27
2019-02-18T23:19:17.439Z,3.80
2019-02-18T23:21:47.300Z,4.87
2019-02-18T23:24:17.050Z,3.83
2019-02-18T23:26:46.830Z,3.10
2019-02-18T23:29:16.696Z,3.67
2019-02-18T23:31:47.618Z,3.70
2019-02-18T23:34:19.266Z,3.63
2019-02-18T23:36:49.059Z,3.80
2019-02-18T23:39:18.822Z,3.80
2019-02-18T23:41:48.675Z,3.60
2019-02-18T23:44:18.535Z,3.73
2019-02-18T23:46:48.306Z,3.87
2019-02-18T23:49:19.175Z,3.63
2019-02-18T23:51:48.978Z,4.30
2019-02-18T23:54:18.750Z,3.60
2019-02-18T23:56:48.703Z,4.10
2019-02-18T23:59:18.506Z,3.67
